sensor_id;sensor_type;location;lat;lon;timestamp;P1;durP1;ratioP1;P2;durP2;ratioP2
54157;SDS011;40065;49.894;10.358;2022-07-23T00:04:08;3.88;;;3.00;;
54157;SDS011;40065;49.894;10.358;2022-07-23T00:09:10;6.55;;;4.20;;
54157;SDS011;40065;49.894;10.358;2022-07-23T00:14:12;6.10;;;4.57;;
54157;SDS011;40065;49.894;10.358;2022-07-23T00:19:14;5.57;;;3.53;;
54157;SDS011;40065;49.894;10.358;2022-07-23T00:24:15;4.13;;;3.67;;
54157;SDS011;40065;49.894;10.358;2022-07-23T00:29:17;4.45;;;3.30;;
54157;SDS011;40065;49.894;10.358;2022-07-23T00:34:19;3.70;;;3.20;;
54157;SDS011;40065;49.894;10.358;2022-07-23T00:39:21;6.07;;;3.85;;
54157;SDS011;40065;49.894;10.358;2022-07-23T00:44:25;4.35;;;3.17;;
54157;SDS011;40065;49.894;10.358;2022-07-23T00:49:29;4.57;;;3.40;;
54157;SDS011;40065;49.894;10.358;2022-07-23T00:54:31;4.60;;;3.40;;
54157;SDS011;40065;49.894;10.358;2022-07-23T00:59:33;4.03;;;2.97;;
54157;SDS011;40065;49.894;10.358;2022-07-23T01:04:35;7.10;;;3.88;;
54157;SDS011;40065;49.894;10.358;2022-07-23T01:09:37;5.43;;;3.70;;
54157;SDS011;40065;49.894;10.358;2022-07-23T01:14:39;5.55;;;3.55;;
54157;SDS011;40065;49.894;10.358;2022-07-23T01:19:41;4.32;;;3.10;;
54157;SDS011;40065;49.894;10.358;2022-07-23T01:24:43;6.15;;;4.22;;
54157;SDS011;40065;49.894;10.358;2022-07-23T01:29:45;3.58;;;3.00;;
54157;SDS011;40065;49.894;10.358;2022-07-23T01:34:52;3.72;;;2.90;;
54157;SDS011;40065;49.894;10.358;2022-07-23T01:39:53;6.07;;;4.15;;
54157;SDS011;40065;49.894;10.358;2022-07-23T01:44:56;4.30;;;3.90;;
54157;SDS011;40065;49.894;10.358;2022-07-23T01:49:58;5.35;;;3.80;;
54157;SDS011;40065;49.894;10.358;2022-07-23T01:55:26;4.95;;;3.83;;
54157;SDS011;40065;49.894;10.358;2022-07-23T02:00:30;4.68;;;3.83;;
54157;SDS011;40065;49.894;10.358;2022-07-23T02:05:32;4.60;;;4.00;;
54157;SDS011;40065;49.894;10.358;2022-07-23T02:10:34;4.05;;;3.53;;
54157;SDS011;40065;49.894;10.358;2022-07-23T02:15:37;5.28;;;3.70;;
54157;SDS011;40065;49.894;10.358;2022-07-23T02:20:39;5.07;;;3.78;;
54157;SDS011;40065;49.894;10.358;2022-07-23T02:25:42;5.73;;;4.00;;
54157;SDS011;40065;49.894;10.358;2022-07-23T02:30:44;5.13;;;4.00;;
54157;SDS011;40065;49.894;10.358;2022-07-23T02:35:46;5.50;;;3.55;;
54157;SDS011;40065;49.894;10.358;2022-07-23T02:40:53;7.32;;;4.90;;
54157;SDS011;40065;49.894;10.358;2022-07-23T02:45:55;5.90;;;4.15;;
54157;SDS011;40065;49.894;10.358;2022-07-23T02:50:58;6.55;;;4.93;;
54157;SDS011;40065;49.894;10.358;2022-07-23T02:56:06;7.88;;;4.72;;
54157;SDS011;40065;49.894;10.358;2022-07-23T03:01:08;6.10;;;4.03;;
54157;SDS011;40065;49.894;10.358;2022-07-23T03:06:10;6.70;;;4.85;;
54157;SDS011;40065;49.894;10.358;2022-07-23T03:11:13;7.22;;;5.10;;
54157;SDS011;40065;49.894;10.358;2022-07-23T03:16:19;7.15;;;4.68;;
54157;SDS011;40065;49.894;10.358;2022-07-23T03:21:21;8.43;;;5.22;;
54157;SDS011;40065;49.894;10.358;2022-07-23T03:26:23;7.10;;;4.78;;
54157;SDS011;40065;49.894;10.358;2022-07-23T03:31:26;7.22;;;5.15;;
54157;SDS011;40065;49.894;10.358;2022-07-23T03:36:28;6.05;;;4.82;;
54157;SDS011;40065;49.894;10.358;2022-07-23T03:41:31;6.10;;;4.50;;
54157;SDS011;40065;49.894;10.358;2022-07-23T03:46:33;5.88;;;4.28;;
54157;SDS011;40065;49.894;10.358;2022-07-23T03:51:34;7.05;;;4.35;;
54157;SDS011;40065;49.894;10.358;2022-07-23T03:56:36;4.85;;;3.80;;
54157;SDS011;40065;49.894;10.358;2022-07-23T04:01:38;5.40;;;4.07;;
54157;SDS011;40065;49.894;10.358;2022-07-23T04:06:40;8.60;;;5.10;;
54157;SDS011;40065;49.894;10.358;2022-07-23T04:11:42;7.30;;;4.95;;
54157;SDS011;40065;49.894;10.358;2022-07-23T04:16:44;9.23;;;5.60;;
54157;SDS011;40065;49.894;10.358;2022-07-23T04:21:46;7.22;;;5.70;;
54157;SDS011;40065;49.894;10.358;2022-07-23T04:26:48;10.32;;;6.00;;
54157;SDS011;40065;49.894;10.358;2022-07-23T04:31:50;8.07;;;5.13;;
54157;SDS011;40065;49.894;10.358;2022-07-23T04:36:52;6.63;;;4.97;;
54157;SDS011;40065;49.894;10.358;2022-07-23T04:41:55;8.90;;;5.50;;
54157;SDS011;40065;49.894;10.358;2022-07-23T04:46:57;5.40;;;4.68;;
54157;SDS011;40065;49.894;10.358;2022-07-23T04:51:59;5.97;;;3.90;;
54157;SDS011;40065;49.894;10.358;2022-07-23T04:57:01;5.72;;;4.40;;
54157;SDS011;40065;49.894;10.358;2022-07-23T05:02:04;5.60;;;4.30;;
54157;SDS011;40065;49.894;10.358;2022-07-23T05:07:06;6.45;;;4.10;;
54157;SDS011;40065;49.894;10.358;2022-07-23T05:12:08;7.82;;;4.90;;
54157;SDS011;40065;49.894;10.358;2022-07-23T05:17:10;8.65;;;4.90;;
54157;SDS011;40065;49.894;10.358;2022-07-23T05:22:13;10.13;;;5.72;;
54157;SDS011;40065;49.894;10.358;2022-07-23T05:27:15;6.78;;;5.72;;
54157;SDS011;40065;49.894;10.358;2022-07-23T05:32:17;9.07;;;5.47;;
54157;SDS011;40065;49.894;10.358;2022-07-23T05:37:27;8.57;;;5.88;;
54157;SDS011;40065;49.894;10.358;2022-07-23T05:42:29;10.65;;;6.43;;
54157;SDS011;40065;49.894;10.358;2022-07-23T05:47:43;10.80;;;5.70;;
54157;SDS011;40065;49.894;10.358;2022-07-23T05:53:00;10.32;;;6.57;;
54157;SDS011;40065;49.894;10.358;2022-07-23T05:58:13;9.43;;;7.03;;
54157;SDS011;40065;49.894;10.358;2022-07-23T06:03:15;11.00;;;7.07;;
54157;SDS011;40065;49.894;10.358;2022-07-23T06:08:17;11.73;;;7.20;;
54157;SDS011;40065;49.894;10.358;2022-07-23T06:13:19;8.13;;;6.53;;
54157;SDS011;40065;49.894;10.358;2022-07-23T06:18:21;9.13;;;6.68;;
54157;SDS011;40065;49.894;10.358;2022-07-23T06:23:23;6.68;;;4.97;;
54157;SDS011;40065;49.894;10.358;2022-07-23T06:28:25;10.52;;;5.30;;
54157;SDS011;40065;49.894;10.358;2022-07-23T06:33:27;9.93;;;5.60;;
54157;SDS011;40065;49.894;10.358;2022-07-23T06:38:29;9.95;;;5.00;;
54157;SDS011;40065;49.894;10.358;2022-07-23T06:43:30;7.90;;;4.80;;
54157;SDS011;40065;49.894;10.358;2022-07-23T06:48:32;9.13;;;5.15;;
54157;SDS011;40065;49.894;10.358;2022-07-23T06:53:37;6.60;;;4.60;;
54157;SDS011;40065;49.894;10.358;2022-07-23T06:58:38;6.82;;;4.38;;
54157;SDS011;40065;49.894;10.358;2022-07-23T07:03:40;6.43;;;4.50;;
54157;SDS011;40065;49.894;10.358;2022-07-23T07:08:42;6.82;;;4.78;;
54157;SDS011;40065;49.894;10.358;2022-07-23T07:13:45;7.93;;;5.20;;
54157;SDS011;40065;49.894;10.358;2022-07-23T07:18:46;5.25;;;4.35;;
54157;SDS011;40065;49.894;10.358;2022-07-23T07:23:48;6.72;;;5.40;;
54157;SDS011;40065;49.894;10.358;2022-07-23T07:28:50;9.60;;;5.32;;
54157;SDS011;40065;49.894;10.358;2022-07-23T07:33:52;9.95;;;5.35;;
54157;SDS011;40065;49.894;10.358;2022-07-23T07:38:54;9.93;;;5.70;;
54157;SDS011;40065;49.894;10.358;2022-07-23T07:43:55;7.20;;;6.15;;
54157;SDS011;40065;49.894;10.358;2022-07-23T07:48:57;9.32;;;6.10;;
54157;SDS011;40065;49.894;10.358;2022-07-23T07:53:59;7.65;;;5.55;;
54157;SDS011;40065;49.894;10.358;2022-07-23T07:59:02;6.22;;;5.63;;
54157;SDS011;40065;49.894;10.358;2022-07-23T08:04:04;9.80;;;6.00;;
54157;SDS011;40065;49.894;10.358;2022-07-23T08:09:06;9.23;;;6.68;;
54157;SDS011;40065;49.894;10.358;2022-07-23T08:14:08;8.90;;;6.15;;
54157;SDS011;40065;49.894;10.358;2022-07-23T08:19:12;6.40;;;5.68;;
54157;SDS011;40065;49.894;10.358;2022-07-23T08:24:14;7.40;;;5.72;;
54157;SDS011;40065;49.894;10.358;2022-07-23T08:29:15;6.85;;;6.03;;
54157;SDS011;40065;49.894;10.358;2022-07-23T08:34:17;7.05;;;6.28;;
54157;SDS011;40065;49.894;10.358;2022-07-23T08:39:19;9.05;;;6.78;;
54157;SDS011;40065;49.894;10.358;2022-07-23T08:44:21;8.27;;;6.75;;
54157;SDS011;40065;49.894;10.358;2022-07-23T08:49:22;7.57;;;6.75;;
54157;SDS011;40065;49.894;10.358;2022-07-23T08:54:25;8.00;;;6.45;;
54157;SDS011;40065;49.894;10.358;2022-07-23T08:59:28;12.07;;;7.47;;
54157;SDS011;40065;49.894;10.358;2022-07-23T09:09:32;10.73;;;7.57;;
54157;SDS011;40065;49.894;10.358;2022-07-23T09:14:41;10.13;;;7.50;;
54157;SDS011;40065;49.894;10.358;2022-07-23T09:19:44;11.20;;;8.63;;
54157;SDS011;40065;49.894;10.358;2022-07-23T09:25:04;10.38;;;8.05;;
54157;SDS011;40065;49.894;10.358;2022-07-23T09:30:15;10.05;;;7.22;;
54157;SDS011;40065;49.894;10.358;2022-07-23T09:35:18;10.85;;;7.32;;
54157;SDS011;40065;49.894;10.358;2022-07-23T09:40:19;7.78;;;6.18;;
54157;SDS011;40065;49.894;10.358;2022-07-23T09:45:21;9.57;;;7.10;;
54157;SDS011;40065;49.894;10.358;2022-07-23T09:50:23;7.30;;;6.30;;
54157;SDS011;40065;49.894;10.358;2022-07-23T09:55:31;8.13;;;6.68;;
54157;SDS011;40065;49.894;10.358;2022-07-23T10:00:40;7.95;;;7.10;;
54157;SDS011;40065;49.894;10.358;2022-07-23T10:05:43;8.95;;;6.95;;
54157;SDS011;40065;49.894;10.358;2022-07-23T10:10:54;8.02;;;6.43;;
54157;SDS011;40065;49.894;10.358;2022-07-23T10:16:28;6.90;;;6.20;;
54157;SDS011;40065;49.894;10.358;2022-07-23T10:21:34;6.97;;;6.15;;
54157;SDS011;40065;49.894;10.358;2022-07-23T10:27:07;10.30;;;6.13;;
54157;SDS011;40065;49.894;10.358;2022-07-23T10:32:05;6.72;;;5.13;;
54157;SDS011;40065;49.894;10.358;2022-07-23T10:37:23;10.38;;;6.00;;
54157;SDS011;40065;49.894;10.358;2022-07-23T10:42:33;8.27;;;5.18;;
54157;SDS011;40065;49.894;10.358;2022-07-23T10:47:36;7.00;;;4.82;;
54157;SDS011;40065;49.894;10.358;2022-07-23T10:58:11;6.90;;;5.22;;
54157;SDS011;40065;49.894;10.358;2022-07-23T11:03:27;5.50;;;4.82;;
54157;SDS011;40065;49.894;10.358;2022-07-23T11:08:33;6.03;;;4.97;;
54157;SDS011;40065;49.894;10.358;2022-07-23T11:13:44;8.07;;;5.10;;
54157;SDS011;40065;49.894;10.358;2022-07-23T11:39:39;5.63;;;4.20;;
54157;SDS011;40065;49.894;10.358;2022-07-23T11:44:41;5.53;;;4.18;;
54157;SDS011;40065;49.894;10.358;2022-07-23T11:49:59;5.38;;;4.35;;
54157;SDS011;40065;49.894;10.358;2022-07-23T11:55:08;5.28;;;4.43;;
54157;SDS011;40065;49.894;10.358;2022-07-23T12:05:16;5.45;;;4.38;;
54157;SDS011;40065;49.894;10.358;2022-07-23T12:15:31;6.05;;;4.30;;
54157;SDS011;40065;49.894;10.358;2022-07-23T12:20:36;5.43;;;3.85;;
54157;SDS011;40065;49.894;10.358;2022-07-23T12:25:43;6.35;;;3.85;;
54157;SDS011;40065;49.894;10.358;2022-07-23T12:35:49;4.28;;;3.58;;
54157;SDS011;40065;49.894;10.358;2022-07-23T12:40:55;4.95;;;3.83;;
54157;SDS011;40065;49.894;10.358;2022-07-23T12:46:14;8.50;;;4.03;;
54157;SDS011;40065;49.894;10.358;2022-07-23T12:51:26;5.28;;;3.85;;
54157;SDS011;40065;49.894;10.358;2022-07-23T12:56:31;5.57;;;3.80;;
54157;SDS011;40065;49.894;10.358;2022-07-23T13:01:38;4.70;;;3.92;;
54157;SDS011;40065;49.894;10.358;2022-07-23T13:06:46;4.10;;;3.70;;
54157;SDS011;40065;49.894;10.358;2022-07-23T13:11:55;6.45;;;4.00;;
54157;SDS011;40065;49.894;10.358;2022-07-23T13:16:57;5.47;;;3.97;;
54157;SDS011;40065;49.894;10.358;2022-07-23T13:21:59;7.00;;;4.40;;
54157;SDS011;40065;49.894;10.358;2022-07-23T13:27:09;5.70;;;4.30;;
54157;SDS011;40065;49.894;10.358;2022-07-23T13:32:13;4.60;;;3.90;;
54157;SDS011;40065;49.894;10.358;2022-07-23T13:37:15;4.50;;;3.53;;
54157;SDS011;40065;49.894;10.358;2022-07-23T13:42:16;4.80;;;4.30;;
54157;SDS011;40065;49.894;10.358;2022-07-23T13:47:19;4.27;;;3.87;;
54157;SDS011;40065;49.894;10.358;2022-07-23T13:52:21;5.65;;;4.03;;
54157;SDS011;40065;49.894;10.358;2022-07-23T13:57:23;6.32;;;3.75;;
54157;SDS011;40065;49.894;10.358;2022-07-23T14:02:27;4.57;;;3.70;;
54157;SDS011;40065;49.894;10.358;2022-07-23T14:07:29;5.55;;;3.97;;
54157;SDS011;40065;49.894;10.358;2022-07-23T14:12:31;6.13;;;3.90;;
54157;SDS011;40065;49.894;10.358;2022-07-23T14:17:37;7.13;;;4.03;;
54157;SDS011;40065;49.894;10.358;2022-07-23T14:22:41;4.13;;;3.72;;
54157;SDS011;40065;49.894;10.358;2022-07-23T14:27:43;6.38;;;5.07;;
54157;SDS011;40065;49.894;10.358;2022-07-23T14:33:06;4.80;;;3.97;;
54157;SDS011;40065;49.894;10.358;2022-07-23T14:38:10;4.63;;;3.50;;
54157;SDS011;40065;49.894;10.358;2022-07-23T14:43:14;4.80;;;4.28;;
54157;SDS011;40065;49.894;10.358;2022-07-23T14:48:16;4.38;;;3.58;;
54157;SDS011;40065;49.894;10.358;2022-07-23T14:53:18;4.75;;;3.70;;
54157;SDS011;40065;49.894;10.358;2022-07-23T14:58:24;5.35;;;4.00;;
54157;SDS011;40065;49.894;10.358;2022-07-23T15:03:25;4.20;;;3.80;;
54157;SDS011;40065;49.894;10.358;2022-07-23T15:08:42;4.43;;;3.60;;
54157;SDS011;40065;49.894;10.358;2022-07-23T15:13:45;5.47;;;4.38;;
54157;SDS011;40065;49.894;10.358;2022-07-23T15:18:48;6.55;;;4.10;;
54157;SDS011;40065;49.894;10.358;2022-07-23T15:23:50;4.20;;;3.72;;
54157;SDS011;40065;49.894;10.358;2022-07-23T15:28:52;4.43;;;3.80;;
54157;SDS011;40065;49.894;10.358;2022-07-23T15:38:56;6.45;;;3.55;;
54157;SDS011;40065;49.894;10.358;2022-07-23T15:43:58;4.33;;;3.90;;
54157;SDS011;40065;49.894;10.358;2022-07-23T15:49:01;4.30;;;3.50;;
54157;SDS011;40065;49.894;10.358;2022-07-23T15:54:04;4.72;;;3.90;;
54157;SDS011;40065;49.894;10.358;2022-07-23T15:59:07;5.63;;;4.22;;
54157;SDS011;40065;49.894;10.358;2022-07-23T16:04:09;4.63;;;3.80;;
54157;SDS011;40065;49.894;10.358;2022-07-23T16:09:11;5.43;;;3.77;;
54157;SDS011;40065;49.894;10.358;2022-07-23T16:14:19;5.38;;;3.78;;
54157;SDS011;40065;49.894;10.358;2022-07-23T16:19:21;8.33;;;7.57;;
54157;SDS011;40065;49.894;10.358;2022-07-23T16:24:23;4.67;;;4.07;;
54157;SDS011;40065;49.894;10.358;2022-07-23T16:29:25;5.03;;;4.53;;
54157;SDS011;40065;49.894;10.358;2022-07-23T16:34:27;4.70;;;4.10;;
54157;SDS011;40065;49.894;10.358;2022-07-23T16:39:28;4.90;;;4.03;;
54157;SDS011;40065;49.894;10.358;2022-07-23T16:44:30;4.07;;;3.27;;
54157;SDS011;40065;49.894;10.358;2022-07-23T16:49:32;4.10;;;3.70;;
54157;SDS011;40065;49.894;10.358;2022-07-23T16:54:35;5.45;;;3.55;;
54157;SDS011;40065;49.894;10.358;2022-07-23T16:59:37;5.22;;;3.30;;
54157;SDS011;40065;49.894;10.358;2022-07-23T17:04:39;3.83;;;3.37;;
54157;SDS011;40065;49.894;10.358;2022-07-23T17:09:41;4.03;;;3.50;;
54157;SDS011;40065;49.894;10.358;2022-07-23T17:14:43;4.07;;;3.22;;
54157;SDS011;40065;49.894;10.358;2022-07-23T17:19:45;4.13;;;3.40;;
54157;SDS011;40065;49.894;10.358;2022-07-23T17:24:47;3.38;;;3.00;;
54157;SDS011;40065;49.894;10.358;2022-07-23T17:29:51;5.18;;;3.78;;
54157;SDS011;40065;49.894;10.358;2022-07-23T17:34:53;5.38;;;3.50;;
54157;SDS011;40065;49.894;10.358;2022-07-23T17:39:55;3.33;;;2.92;;
54157;SDS011;40065;49.894;10.358;2022-07-23T17:44:56;3.42;;;3.13;;
54157;SDS011;40065;49.894;10.358;2022-07-23T17:50:05;4.95;;;3.65;;
54157;SDS011;40065;49.894;10.358;2022-07-23T17:55:07;5.13;;;3.63;;
54157;SDS011;40065;49.894;10.358;2022-07-23T18:00:09;4.20;;;3.33;;
54157;SDS011;40065;49.894;10.358;2022-07-23T18:05:13;5.15;;;3.30;;
54157;SDS011;40065;49.894;10.358;2022-07-23T18:10:14;3.85;;;3.15;;
54157;SDS011;40065;49.894;10.358;2022-07-23T18:15:17;3.22;;;2.88;;
54157;SDS011;40065;49.894;10.358;2022-07-23T18:20:26;5.50;;;3.17;;
54157;SDS011;40065;49.894;10.358;2022-07-23T18:25:28;4.33;;;3.23;;
54157;SDS011;40065;49.894;10.358;2022-07-23T18:30:30;4.22;;;3.30;;
54157;SDS011;40065;49.894;10.358;2022-07-23T18:35:32;4.13;;;3.10;;
54157;SDS011;40065;49.894;10.358;2022-07-23T18:40:34;4.15;;;3.42;;
54157;SDS011;40065;49.894;10.358;2022-07-23T18:45:36;5.23;;;2.60;;
54157;SDS011;40065;49.894;10.358;2022-07-23T18:50:38;3.80;;;2.78;;
54157;SDS011;40065;49.894;10.358;2022-07-23T18:55:42;3.05;;;2.70;;
54157;SDS011;40065;49.894;10.358;2022-07-23T19:00:44;4.05;;;2.80;;
54157;SDS011;40065;49.894;10.358;2022-07-23T19:05:46;4.78;;;3.40;;
54157;SDS011;40065;49.894;10.358;2022-07-23T19:10:48;4.75;;;3.60;;
54157;SDS011;40065;49.894;10.358;2022-07-23T19:15:51;4.95;;;3.50;;
54157;SDS011;40065;49.894;10.358;2022-07-23T19:25:55;5.25;;;3.70;;
54157;SDS011;40065;49.894;10.358;2022-07-23T19:30:57;4.60;;;3.30;;
54157;SDS011;40065;49.894;10.358;2022-07-23T19:35:59;6.43;;;3.50;;
54157;SDS011;40065;49.894;10.358;2022-07-23T19:41:02;5.78;;;3.40;;
54157;SDS011;40065;49.894;10.358;2022-07-23T19:46:04;3.90;;;3.20;;
54157;SDS011;40065;49.894;10.358;2022-07-23T19:51:06;5.67;;;3.43;;
54157;SDS011;40065;49.894;10.358;2022-07-23T19:56:09;5.77;;;3.90;;
54157;SDS011;40065;49.894;10.358;2022-07-23T20:01:11;6.10;;;4.05;;
54157;SDS011;40065;49.894;10.358;2022-07-23T20:06:12;5.85;;;3.70;;
54157;SDS011;40065;49.894;10.358;2022-07-23T20:11:14;4.85;;;3.33;;
54157;SDS011;40065;49.894;10.358;2022-07-23T20:16:16;4.90;;;3.00;;
54157;SDS011;40065;49.894;10.358;2022-07-23T20:21:18;5.47;;;3.28;;
54157;SDS011;40065;49.894;10.358;2022-07-23T20:26:20;5.82;;;3.42;;
54157;SDS011;40065;49.894;10.358;2022-07-23T20:31:22;6.85;;;3.70;;
54157;SDS011;40065;49.894;10.358;2022-07-23T20:36:24;4.10;;;3.60;;
54157;SDS011;40065;49.894;10.358;2022-07-23T20:41:25;6.22;;;3.50;;
54157;SDS011;40065;49.894;10.358;2022-07-23T20:46:27;4.88;;;2.80;;
54157;SDS011;40065;49.894;10.358;2022-07-23T20:51:30;5.22;;;3.22;;
54157;SDS011;40065;49.894;10.358;2022-07-23T20:56:32;3.55;;;3.03;;
54157;SDS011;40065;49.894;10.358;2022-07-23T21:01:34;5.07;;;3.10;;
54157;SDS011;40065;49.894;10.358;2022-07-23T21:06:36;5.22;;;3.28;;
54157;SDS011;40065;49.894;10.358;2022-07-23T21:11:40;3.50;;;3.13;;
54157;SDS011;40065;49.894;10.358;2022-07-23T21:16:42;3.63;;;2.72;;
54157;SDS011;40065;49.894;10.358;2022-07-23T21:21:44;4.00;;;3.20;;
54157;SDS011;40065;49.894;10.358;2022-07-23T21:26:46;5.63;;;3.40;;
54157;SDS011;40065;49.894;10.358;2022-07-23T21:31:47;4.45;;;3.55;;
54157;SDS011;40065;49.894;10.358;2022-07-23T21:36:54;4.28;;;3.20;;
54157;SDS011;40065;49.894;10.358;2022-07-23T21:41:56;4.95;;;3.40;;
54157;SDS011;40065;49.894;10.358;2022-07-23T21:46:58;5.20;;;3.47;;
54157;SDS011;40065;49.894;10.358;2022-07-23T21:52:00;3.80;;;2.85;;
54157;SDS011;40065;49.894;10.358;2022-07-23T21:57:02;4.10;;;2.80;;
54157;SDS011;40065;49.894;10.358;2022-07-23T22:02:04;4.43;;;3.45;;
54157;SDS011;40065;49.894;10.358;2022-07-23T22:07:06;4.30;;;3.03;;
54157;SDS011;40065;49.894;10.358;2022-07-23T22:12:08;3.47;;;3.08;;
54157;SDS011;40065;49.894;10.358;2022-07-23T22:17:10;4.00;;;3.20;;
54157;SDS011;40065;49.894;10.358;2022-07-23T22:22:12;5.05;;;3.42;;
54157;SDS011;40065;49.894;10.358;2022-07-23T22:27:14;5.28;;;4.00;;
54157;SDS011;40065;49.894;10.358;2022-07-23T22:32:16;6.63;;;4.32;;
54157;SDS011;40065;49.894;10.358;2022-07-23T22:37:24;7.13;;;5.53;;
54157;SDS011;40065;49.894;10.358;2022-07-23T22:42:26;8.00;;;5.38;;
54157;SDS011;40065;49.894;10.358;2022-07-23T22:47:27;6.25;;;4.30;;
54157;SDS011;40065;49.894;10.358;2022-07-23T22:52:30;6.32;;;4.25;;
54157;SDS011;40065;49.894;10.358;2022-07-23T22:57:32;4.80;;;3.67;;
54157;SDS011;40065;49.894;10.358;2022-07-23T23:02:34;4.18;;;3.28;;
54157;SDS011;40065;49.894;10.358;2022-07-23T23:07:36;4.35;;;3.45;;
54157;SDS011;40065;49.894;10.358;2022-07-23T23:12:37;4.95;;;3.15;;
54157;SDS011;40065;49.894;10.358;2022-07-23T23:17:39;4.68;;;3.45;;
54157;SDS011;40065;49.894;10.358;2022-07-23T23:22:41;7.55;;;3.95;;
54157;SDS011;40065;49.894;10.358;2022-07-23T23:27:46;4.65;;;3.65;;
54157;SDS011;40065;49.894;10.358;2022-07-23T23:32:48;5.50;;;3.08;;
54157;SDS011;40065;49.894;10.358;2022-07-23T23:37:50;4.68;;;3.30;;
54157;SDS011;40065;49.894;10.358;2022-07-23T23:42:51;5.47;;;3.63;;
54157;SDS011;40065;49.894;10.358;2022-07-23T23:47:53;4.40;;;3.70;;
54157;SDS011;40065;49.894;10.358;2022-07-23T23:52:55;5.07;;;3.88;;
54157;SDS011;40065;49.894;10.358;2022-07-23T23:57:58;5.43;;;3.88;;
